sensor_id;sensor_type;location;lat;lon;timestamp;P1;durP1;ratioP1;P2;durP2;ratioP2
33794;SDS011;51430;52.242;21.118;2022-12-18T01:12:56;34.60;;;23.20;;
33794;SDS011;51430;52.242;21.118;2022-12-18T01:16:07;29.10;;;19.90;;
33794;SDS011;51430;52.242;21.118;2022-12-18T01:29:56;28.20;;;19.00;;
33794;SDS011;51430;52.242;21.118;2022-12-18T01:32:55;29.80;;;20.80;;
33794;SDS011;51430;52.242;21.118;2022-12-18T01:35:58;30.40;;;19.40;;
33794;SDS011;51430;52.242;21.118;2022-12-18T01:51:01;29.10;;;20.90;;
33794;SDS011;51430;52.242;21.118;2022-12-18T05:11:06;18.00;;;13.10;;
33794;SDS011;51430;52.242;21.118;2022-12-18T05:14:52;17.70;;;12.80;;
33794;SDS011;51430;52.242;21.118;2022-12-18T05:18:17;18.30;;;12.30;;
33794;SDS011;51430;52.242;21.118;2022-12-18T05:32:01;18.10;;;12.60;;
33794;SDS011;51430;52.242;21.118;2022-12-18T05:35:01;16.50;;;12.30;;
33794;SDS011;51430;52.242;21.118;2022-12-18T05:38:59;17.70;;;13.00;;
33794;SDS011;51430;52.242;21.118;2022-12-18T05:42:04;18.70;;;12.80;;
33794;SDS011;51430;52.242;21.118;2022-12-18T05:46:05;22.80;;;14.00;;
33794;SDS011;51430;52.242;21.118;2022-12-18T05:49:59;19.50;;;13.90;;
33794;SDS011;51430;52.242;21.118;2022-12-18T05:53:17;20.40;;;13.10;;
33794;SDS011;51430;52.242;21.118;2022-12-18T05:57:18;22.30;;;13.70;;
33794;SDS011;51430;52.242;21.118;2022-12-18T06:01:19;19.00;;;13.40;;
33794;SDS011;51430;52.242;21.118;2022-12-18T06:05:20;19.50;;;13.70;;
33794;SDS011;51430;52.242;21.118;2022-12-18T06:20:08;22.00;;;14.60;;
33794;SDS011;51430;52.242;21.118;2022-12-18T06:23:04;21.60;;;13.70;;
33794;SDS011;51430;52.242;21.118;2022-12-18T06:27:02;22.30;;;15.10;;
33794;SDS011;51430;52.242;21.118;2022-12-18T06:31:03;24.60;;;16.60;;
33794;SDS011;51430;52.242;21.118;2022-12-18T06:35:15;27.20;;;17.70;;
33794;SDS011;51430;52.242;21.118;2022-12-18T06:38:49;25.30;;;16.10;;
33794;SDS011;51430;52.242;21.118;2022-12-18T06:42:24;27.60;;;18.00;;
33794;SDS011;51430;52.242;21.118;2022-12-18T06:46:09;29.40;;;17.00;;
33794;SDS011;51430;52.242;21.118;2022-12-18T06:49:38;26.70;;;17.10;;
33794;SDS011;51430;52.242;21.118;2022-12-18T06:53:31;28.40;;;17.90;;
33794;SDS011;51430;52.242;21.118;2022-12-18T06:57:08;29.50;;;18.60;;
33794;SDS011;51430;52.242;21.118;2022-12-18T06:59:53;34.10;;;23.90;;
33794;SDS011;51430;52.242;21.118;2022-12-18T07:02:40;35.00;;;25.40;;
33794;SDS011;51430;52.242;21.118;2022-12-18T07:05:25;36.60;;;26.50;;
33794;SDS011;51430;52.242;21.118;2022-12-18T07:08:10;40.20;;;27.50;;
33794;SDS011;51430;52.242;21.118;2022-12-18T07:10:57;42.80;;;28.40;;
33794;SDS011;51430;52.242;21.118;2022-12-18T07:13:42;49.60;;;30.70;;
33794;SDS011;51430;52.242;21.118;2022-12-18T07:16:28;45.70;;;31.00;;
33794;SDS011;51430;52.242;21.118;2022-12-18T07:19:13;43.70;;;29.40;;
33794;SDS011;51430;52.242;21.118;2022-12-18T07:21:58;45.80;;;31.10;;
33794;SDS011;51430;52.242;21.118;2022-12-18T07:24:43;58.40;;;35.60;;
33794;SDS011;51430;52.242;21.118;2022-12-18T07:27:28;55.20;;;35.90;;
33794;SDS011;51430;52.242;21.118;2022-12-18T07:30:13;54.70;;;33.90;;
33794;SDS011;51430;52.242;21.118;2022-12-18T07:32:59;55.70;;;34.20;;
33794;SDS011;51430;52.242;21.118;2022-12-18T07:35:46;58.40;;;36.30;;
33794;SDS011;51430;52.242;21.118;2022-12-18T07:38:31;55.10;;;35.40;;
33794;SDS011;51430;52.242;21.118;2022-12-18T07:41:18;56.00;;;35.20;;
33794;SDS011;51430;52.242;21.118;2022-12-18T07:44:03;59.30;;;38.10;;
33794;SDS011;51430;52.242;21.118;2022-12-18T07:46:48;59.40;;;36.20;;
33794;SDS011;51430;52.242;21.118;2022-12-18T07:49:33;58.60;;;37.70;;
33794;SDS011;51430;52.242;21.118;2022-12-18T07:52:18;58.10;;;37.10;;
33794;SDS011;51430;52.242;21.118;2022-12-18T07:55:10;55.90;;;34.80;;
33794;SDS011;51430;52.242;21.118;2022-12-18T07:57:55;56.50;;;35.00;;
33794;SDS011;51430;52.242;21.118;2022-12-18T08:00:45;55.10;;;34.70;;
33794;SDS011;51430;52.242;21.118;2022-12-18T08:03:32;59.80;;;37.00;;
33794;SDS011;51430;52.242;21.118;2022-12-18T08:06:18;60.70;;;37.10;;
33794;SDS011;51430;52.242;21.118;2022-12-18T08:09:08;57.20;;;37.10;;
33794;SDS011;51430;52.242;21.118;2022-12-18T08:11:54;64.50;;;38.50;;
33794;SDS011;51430;52.242;21.118;2022-12-18T08:14:39;64.30;;;40.40;;
33794;SDS011;51430;52.242;21.118;2022-12-18T08:17:24;75.80;;;46.40;;
33794;SDS011;51430;52.242;21.118;2022-12-18T08:20:11;67.70;;;43.30;;
33794;SDS011;51430;52.242;21.118;2022-12-18T08:22:58;65.60;;;41.10;;
33794;SDS011;51430;52.242;21.118;2022-12-18T08:25:43;56.50;;;36.20;;
33794;SDS011;51430;52.242;21.118;2022-12-18T08:28:28;64.10;;;39.00;;
33794;SDS011;51430;52.242;21.118;2022-12-18T08:31:14;64.00;;;39.20;;
33794;SDS011;51430;52.242;21.118;2022-12-18T08:35:40;62.00;;;33.20;;
33794;SDS011;51430;52.242;21.118;2022-12-18T08:38:31;65.10;;;40.70;;
33794;SDS011;51430;52.242;21.118;2022-12-18T08:41:17;65.30;;;39.40;;
33794;SDS011;51430;52.242;21.118;2022-12-18T08:44:04;62.50;;;38.60;;
33794;SDS011;51430;52.242;21.118;2022-12-18T08:47:10;57.00;;;36.60;;
33794;SDS011;51430;52.242;21.118;2022-12-18T08:50:22;50.60;;;29.50;;
33794;SDS011;51430;52.242;21.118;2022-12-18T08:53:09;56.60;;;34.60;;
33794;SDS011;51430;52.242;21.118;2022-12-18T08:58:46;53.00;;;34.50;;
33794;SDS011;51430;52.242;21.118;2022-12-18T09:01:32;52.10;;;34.60;;
33794;SDS011;51430;52.242;21.118;2022-12-18T09:04:20;52.60;;;35.70;;
33794;SDS011;51430;52.242;21.118;2022-12-18T09:07:07;55.90;;;36.00;;
33794;SDS011;51430;52.242;21.118;2022-12-18T09:09:53;58.00;;;37.00;;
33794;SDS011;51430;52.242;21.118;2022-12-18T09:12:40;58.20;;;36.50;;
33794;SDS011;51430;52.242;21.118;2022-12-18T09:15:26;58.20;;;37.90;;
33794;SDS011;51430;52.242;21.118;2022-12-18T09:18:14;57.10;;;35.10;;
33794;SDS011;51430;52.242;21.118;2022-12-18T09:21:16;54.10;;;33.90;;
33794;SDS011;51430;52.242;21.118;2022-12-18T09:24:05;55.30;;;35.20;;
33794;SDS011;51430;52.242;21.118;2022-12-18T09:26:58;51.90;;;34.50;;
33794;SDS011;51430;52.242;21.118;2022-12-18T09:29:45;53.80;;;34.70;;
33794;SDS011;51430;52.242;21.118;2022-12-18T09:32:32;49.30;;;32.40;;
33794;SDS011;51430;52.242;21.118;2022-12-18T09:35:19;45.80;;;31.80;;
33794;SDS011;51430;52.242;21.118;2022-12-18T09:38:07;46.40;;;31.30;;
33794;SDS011;51430;52.242;21.118;2022-12-18T09:40:57;43.80;;;29.30;;
33794;SDS011;51430;52.242;21.118;2022-12-18T09:43:50;44.50;;;30.80;;
33794;SDS011;51430;52.242;21.118;2022-12-18T09:46:42;44.30;;;30.20;;
33794;SDS011;51430;52.242;21.118;2022-12-18T09:49:33;44.90;;;29.60;;
33794;SDS011;51430;52.242;21.118;2022-12-18T09:52:29;45.40;;;29.40;;
33794;SDS011;51430;52.242;21.118;2022-12-18T09:55:30;41.40;;;28.40;;
33794;SDS011;51430;52.242;21.118;2022-12-18T10:00:15;42.40;;;23.80;;
33794;SDS011;51430;52.242;21.118;2022-12-18T10:03:23;42.30;;;23.90;;
33794;SDS011;51430;52.242;21.118;2022-12-18T10:07:23;41.30;;;24.30;;
33794;SDS011;51430;52.242;21.118;2022-12-18T10:11:38;39.80;;;23.20;;
33794;SDS011;51430;52.242;21.118;2022-12-18T10:15:51;45.00;;;24.90;;
33794;SDS011;51430;52.242;21.118;2022-12-18T10:20:01;40.40;;;25.20;;
33794;SDS011;51430;52.242;21.118;2022-12-18T10:24:24;42.40;;;24.70;;
33794;SDS011;51430;52.242;21.118;2022-12-18T10:28:30;42.00;;;25.00;;
33794;SDS011;51430;52.242;21.118;2022-12-18T10:32:30;41.30;;;23.50;;
33794;SDS011;51430;52.242;21.118;2022-12-18T10:36:48;41.80;;;26.30;;
33794;SDS011;51430;52.242;21.118;2022-12-18T10:40:13;47.40;;;27.50;;
33794;SDS011;51430;52.242;21.118;2022-12-18T10:44:23;39.40;;;25.00;;
33794;SDS011;51430;52.242;21.118;2022-12-18T10:47:55;42.60;;;26.50;;
33794;SDS011;51430;52.242;21.118;2022-12-18T10:50:45;45.20;;;32.90;;
33794;SDS011;51430;52.242;21.118;2022-12-18T10:54:01;47.20;;;31.40;;
33794;SDS011;51430;52.242;21.118;2022-12-18T10:56:49;48.10;;;33.40;;
33794;SDS011;51430;52.242;21.118;2022-12-18T10:59:49;48.80;;;34.70;;
33794;SDS011;51430;52.242;21.118;2022-12-18T11:05:00;43.80;;;26.60;;
33794;SDS011;51430;52.242;21.118;2022-12-18T11:19:38;48.20;;;28.80;;
33794;SDS011;51430;52.242;21.118;2022-12-18T11:46:59;47.40;;;28.50;;
33794;SDS011;51430;52.242;21.118;2022-12-18T11:50:12;50.20;;;29.10;;
33794;SDS011;51430;52.242;21.118;2022-12-18T11:54:17;50.40;;;30.90;;
33794;SDS011;51430;52.242;21.118;2022-12-18T12:40:41;60.40;;;35.90;;
33794;SDS011;51430;52.242;21.118;2022-12-18T12:54:46;53.00;;;31.30;;
33794;SDS011;51430;52.242;21.118;2022-12-18T13:12:29;53.90;;;31.00;;
33794;SDS011;51430;52.242;21.118;2022-12-18T13:15:47;57.10;;;30.50;;
33794;SDS011;51430;52.242;21.118;2022-12-18T13:30:53;53.60;;;31.30;;
33794;SDS011;51430;52.242;21.118;2022-12-18T13:44:43;58.10;;;35.10;;
33794;SDS011;51430;52.242;21.118;2022-12-18T13:47:39;54.60;;;32.70;;
33794;SDS011;51430;52.242;21.118;2022-12-18T13:51:33;55.30;;;32.20;;
33794;SDS011;51430;52.242;21.118;2022-12-18T13:55:32;54.40;;;31.80;;
33794;SDS011;51430;52.242;21.118;2022-12-18T14:03:22;55.90;;;31.90;;
33794;SDS011;51430;52.242;21.118;2022-12-18T14:18:25;53.80;;;33.00;;
33794;SDS011;51430;52.242;21.118;2022-12-18T14:21:27;53.60;;;30.10;;
33794;SDS011;51430;52.242;21.118;2022-12-18T14:36:01;56.00;;;33.80;;
33794;SDS011;51430;52.242;21.118;2022-12-18T14:38:59;52.70;;;30.80;;
33794;SDS011;51430;52.242;21.118;2022-12-18T14:43:04;53.20;;;30.70;;
33794;SDS011;51430;52.242;21.118;2022-12-18T14:57:59;53.90;;;30.30;;
33794;SDS011;51430;52.242;21.118;2022-12-18T15:25:33;52.80;;;31.60;;
33794;SDS011;51430;52.242;21.118;2022-12-18T15:28:49;50.00;;;29.70;;
33794;SDS011;51430;52.242;21.118;2022-12-18T15:43:07;55.50;;;32.90;;
33794;SDS011;51430;52.242;21.118;2022-12-18T15:46:46;53.10;;;31.40;;
33794;SDS011;51430;52.242;21.118;2022-12-18T15:50:10;49.70;;;29.50;;
33794;SDS011;51430;52.242;21.118;2022-12-18T16:04:34;53.30;;;31.50;;
33794;SDS011;51430;52.242;21.118;2022-12-18T16:07:56;53.00;;;30.10;;
33794;SDS011;51430;52.242;21.118;2022-12-18T16:21:56;49.70;;;29.40;;
33794;SDS011;51430;52.242;21.118;2022-12-18T16:24:59;51.00;;;28.60;;
33794;SDS011;51430;52.242;21.118;2022-12-18T16:28:39;48.90;;;26.50;;
33794;SDS011;51430;52.242;21.118;2022-12-18T16:32:15;51.60;;;28.60;;
33794;SDS011;51430;52.242;21.118;2022-12-18T16:36:17;47.90;;;27.50;;
33794;SDS011;51430;52.242;21.118;2022-12-18T16:40:33;48.40;;;29.10;;
33794;SDS011;51430;52.242;21.118;2022-12-18T16:44:15;55.10;;;30.50;;
33794;SDS011;51430;52.242;21.118;2022-12-18T16:57:59;57.00;;;32.90;;
33794;SDS011;51430;52.242;21.118;2022-12-18T17:11:46;67.40;;;39.00;;
33794;SDS011;51430;52.242;21.118;2022-12-18T17:25:38;52.50;;;31.30;;
33794;SDS011;51430;52.242;21.118;2022-12-18T17:39:15;47.00;;;29.60;;
33794;SDS011;51430;52.242;21.118;2022-12-18T17:42:51;75.80;;;42.50;;
33794;SDS011;51430;52.242;21.118;2022-12-18T17:46:01;47.50;;;27.10;;
33794;SDS011;51430;52.242;21.118;2022-12-18T18:00:41;55.40;;;30.90;;
33794;SDS011;51430;52.242;21.118;2022-12-18T18:03:39;43.00;;;25.80;;
33794;SDS011;51430;52.242;21.118;2022-12-18T18:07:56;54.80;;;28.70;;
33794;SDS011;51430;52.242;21.118;2022-12-18T18:11:21;52.20;;;27.90;;
33794;SDS011;51430;52.242;21.118;2022-12-18T18:14:59;45.10;;;26.00;;
33794;SDS011;51430;52.242;21.118;2022-12-18T18:18:37;44.40;;;26.40;;
33794;SDS011;51430;52.242;21.118;2022-12-18T18:46:21;47.00;;;29.40;;
33794;SDS011;51430;52.242;21.118;2022-12-18T18:49:22;48.00;;;28.80;;
33794;SDS011;51430;52.242;21.118;2022-12-18T19:03:34;48.60;;;26.30;;
33794;SDS011;51430;52.242;21.118;2022-12-18T19:07:06;56.00;;;33.50;;
33794;SDS011;51430;52.242;21.118;2022-12-18T19:10:19;48.00;;;28.70;;
33794;SDS011;51430;52.242;21.118;2022-12-18T19:24:16;44.30;;;24.40;;
33794;SDS011;51430;52.242;21.118;2022-12-18T19:27:18;38.20;;;22.20;;
33794;SDS011;51430;52.242;21.118;2022-12-18T19:30:06;46.10;;;29.90;;
33794;SDS011;51430;52.242;21.118;2022-12-18T19:32:55;45.60;;;31.70;;
33794;SDS011;51430;52.242;21.118;2022-12-18T19:35:48;45.80;;;30.50;;
33794;SDS011;51430;52.242;21.118;2022-12-18T19:38:35;47.50;;;30.80;;
33794;SDS011;51430;52.242;21.118;2022-12-18T19:41:21;48.80;;;32.30;;
33794;SDS011;51430;52.242;21.118;2022-12-18T19:44:11;45.90;;;30.80;;
33794;SDS011;51430;52.242;21.118;2022-12-18T19:46:59;47.60;;;31.40;;
33794;SDS011;51430;52.242;21.118;2022-12-18T19:49:46;48.60;;;32.20;;
33794;SDS011;51430;52.242;21.118;2022-12-18T19:52:32;44.80;;;30.70;;
33794;SDS011;51430;52.242;21.118;2022-12-18T19:55:19;47.70;;;32.30;;
33794;SDS011;51430;52.242;21.118;2022-12-18T19:58:06;42.80;;;29.50;;
33794;SDS011;51430;52.242;21.118;2022-12-18T20:00:55;44.20;;;29.90;;
33794;SDS011;51430;52.242;21.118;2022-12-18T20:04:43;37.20;;;21.10;;
33794;SDS011;51430;52.242;21.118;2022-12-18T20:07:47;41.40;;;22.20;;
33794;SDS011;51430;52.242;21.118;2022-12-18T20:11:44;39.10;;;23.00;;
33794;SDS011;51430;52.242;21.118;2022-12-18T20:15:55;105.00;;;52.20;;
33794;SDS011;51430;52.242;21.118;2022-12-18T20:19:19;157.00;;;66.00;;
33794;SDS011;51430;52.242;21.118;2022-12-18T20:34:11;39.80;;;25.60;;
33794;SDS011;51430;52.242;21.118;2022-12-18T20:36:58;44.40;;;30.40;;
33794;SDS011;51430;52.242;21.118;2022-12-18T20:39:45;44.10;;;28.50;;
33794;SDS011;51430;52.242;21.118;2022-12-18T20:42:32;43.30;;;29.30;;
33794;SDS011;51430;52.242;21.118;2022-12-18T20:45:18;45.80;;;30.60;;
33794;SDS011;51430;52.242;21.118;2022-12-18T20:48:05;48.00;;;34.70;;
33794;SDS011;51430;52.242;21.118;2022-12-18T20:50:56;42.80;;;29.50;;
33794;SDS011;51430;52.242;21.118;2022-12-18T20:53:47;41.10;;;27.90;;
33794;SDS011;51430;52.242;21.118;2022-12-18T20:56:34;42.30;;;28.60;;
33794;SDS011;51430;52.242;21.118;2022-12-18T20:59:21;41.30;;;27.60;;
33794;SDS011;51430;52.242;21.118;2022-12-18T21:02:09;42.40;;;28.70;;
33794;SDS011;51430;52.242;21.118;2022-12-18T21:04:58;72.40;;;47.60;;
33794;SDS011;51430;52.242;21.118;2022-12-18T21:07:44;46.70;;;32.50;;
33794;SDS011;51430;52.242;21.118;2022-12-18T21:10:31;43.00;;;29.40;;
33794;SDS011;51430;52.242;21.118;2022-12-18T21:13:37;39.00;;;27.00;;
33794;SDS011;51430;52.242;21.118;2022-12-18T21:16:34;40.40;;;27.70;;
33794;SDS011;51430;52.242;21.118;2022-12-18T21:19:24;40.60;;;27.40;;
33794;SDS011;51430;52.242;21.118;2022-12-18T21:22:13;40.20;;;28.70;;
33794;SDS011;51430;52.242;21.118;2022-12-18T21:25:02;41.10;;;28.80;;
33794;SDS011;51430;52.242;21.118;2022-12-18T21:27:49;42.70;;;30.80;;
33794;SDS011;51430;52.242;21.118;2022-12-18T21:30:36;47.50;;;32.50;;
33794;SDS011;51430;52.242;21.118;2022-12-18T21:34:26;37.80;;;21.30;;
33794;SDS011;51430;52.242;21.118;2022-12-18T21:37:12;39.50;;;26.30;;
33794;SDS011;51430;52.242;21.118;2022-12-18T21:39:57;39.60;;;27.10;;
33794;SDS011;51430;52.242;21.118;2022-12-18T21:42:43;37.20;;;26.20;;
33794;SDS011;51430;52.242;21.118;2022-12-18T21:46:05;35.90;;;21.30;;
33794;SDS011;51430;52.242;21.118;2022-12-18T21:48:52;39.20;;;27.20;;
33794;SDS011;51430;52.242;21.118;2022-12-18T21:51:39;42.20;;;28.90;;
33794;SDS011;51430;52.242;21.118;2022-12-18T21:54:27;41.50;;;27.80;;
33794;SDS011;51430;52.242;21.118;2022-12-18T21:57:15;43.00;;;29.80;;
33794;SDS011;51430;52.242;21.118;2022-12-18T22:03:16;42.80;;;29.10;;
33794;SDS011;51430;52.242;21.118;2022-12-18T22:06:04;40.40;;;27.80;;
33794;SDS011;51430;52.242;21.118;2022-12-18T22:12:31;33.30;;;20.50;;
33794;SDS011;51430;52.242;21.118;2022-12-18T22:26:52;38.00;;;21.80;;
33794;SDS011;51430;52.242;21.118;2022-12-18T22:54:15;32.90;;;19.60;;
33794;SDS011;51430;52.242;21.118;2022-12-18T22:57:32;34.00;;;19.50;;
33794;SDS011;51430;52.242;21.118;2022-12-18T23:11:16;30.50;;;18.00;;
33794;SDS011;51430;52.242;21.118;2022-12-18T23:14:14;29.20;;;16.90;;
33794;SDS011;51430;52.242;21.118;2022-12-18T23:18:29;28.10;;;14.80;;
33794;SDS011;51430;52.242;21.118;2022-12-18T23:21:49;31.10;;;16.80;;
33794;SDS011;51430;52.242;21.118;2022-12-18T23:25:46;32.10;;;17.50;;
33794;SDS011;51430;52.242;21.118;2022-12-18T23:29:44;32.60;;;17.80;;
33794;SDS011;51430;52.242;21.118;2022-12-18T23:34:04;28.80;;;16.90;;
33794;SDS011;51430;52.242;21.118;2022-12-18T23:37:37;27.10;;;15.80;;
33794;SDS011;51430;52.242;21.118;2022-12-18T23:40:43;30.80;;;21.20;;
33794;SDS011;51430;52.242;21.118;2022-12-18T23:43:30;31.90;;;20.80;;
33794;SDS011;51430;52.242;21.118;2022-12-18T23:46:16;30.60;;;20.30;;
33794;SDS011;51430;52.242;21.118;2022-12-18T23:51:24;27.30;;;17.00;;
33794;SDS011;51430;52.242;21.118;2022-12-18T23:55:23;27.80;;;16.50;;
33794;SDS011;51430;52.242;21.118;2022-12-18T23:59:32;27.00;;;16.20;;
